^^
Meteo Knjazevac Station Historical Data
Daily Summary for February 27, 2021 Units:  Metric    English   Both
Daily Weekly Monthly Yearly Custom
  High: Low: Average:
Temperature: 0.1 °C -2 °C -0.6 °C
Dew Point: -0.2 °C -2.7 °C -1.2 °C
Humidity: 99% 93% 96%
Wind Speed: 8km/h 0km/h 1.9km/h
Wind Gust: 14.5km/h - -
Wind- - SSW
Pressure: 1013.1 hPa 1011.7 hPa -
Precipitation: 0.25 mm    
Historical Graphs
 
 
Tabular Data for February 27, 2021
Time Temperature Dew Point Pressure Wind Wind Speed Wind Gust Humidity Rainfall Rate (Hourly) solar Conditions
00:00 0.1 °C -0.4 °C 1012.1 hPa NNE 1.6 km/h 8 km/h 96% 0 mm 0 W/m2
00:10 0 °C -0.6 °C 1012.1 hPa NNE 1.6 km/h 4.8 km/h 96% 0 mm 0 W/m2
00:20 0 °C -0.3 °C 1012.1 hPa NE 3.2 km/h 4.8 km/h 98% 0 mm 0 W/m2
00:30 0 °C -0.3 °C 1012.1 hPa Calm   3.2 km/h 98% 0 mm 0 W/m2
00:40 0 °C -0.3 °C 1012.1 hPa Calm   3.2 km/h 98% 0 mm 0 W/m2
00:50 -0.1 °C -0.3 °C 1011.7 hPa Calm   3.2 km/h 98% 0 mm 0 W/m2
01:00 -0.1 °C -0.4 °C 1012.1 hPa Calm   1.6 km/h 98% 0 mm 0 W/m2
01:10 -0.1 °C -0.2 °C 1011.7 hPa Calm   3.2 km/h 99% 0 mm 0 W/m2
01:20 -0.2 °C -0.3 °C 1012.1 hPa Calm   3.2 km/h 99% 0 mm 0 W/m2
01:30 -0.2 °C -0.3 °C 1011.7 hPa Calm   3.2 km/h 99% 0 mm 0 W/m2
01:40 -0.3 °C -0.4 °C 1012.1 hPa West 1.6 km/h 3.2 km/h 99% 0 mm 0 W/m2
01:50 -0.3 °C -0.4 °C 1012.1 hPa Calm   1.6 km/h 99% 0 mm 0 W/m2
02:00 -0.3 °C -0.4 °C 1012.1 hPa Calm   3.2 km/h 99% 0 mm 0 W/m2
02:10 -0.3 °C -0.4 °C 1012.1 hPa Calm   3.2 km/h 99% 0 mm 0 W/m2
02:20 -0.3 °C -0.4 °C 1012.1 hPa SE 1.6 km/h 3.2 km/h 99% 0 mm 0 W/m2
02:30 -0.4 °C -0.5 °C 1012.1 hPa Calm   4.8 km/h 99% 0 mm 0 W/m2
02:40 -0.4 °C -0.6 °C 1012.1 hPa North 1.6 km/h 3.2 km/h 99% 0 mm 0 W/m2
02:50 -0.4 °C -0.6 °C 1012.4 hPa NNE 3.2 km/h 6.4 km/h 99% 0 mm 0 W/m2
03:00 -0.3 °C -0.4 °C 1012.4 hPa NNE 3.2 km/h 8 km/h 99% 0 mm 0 W/m2
03:10 -0.3 °C -0.6 °C 1012.4 hPa North 1.6 km/h 9.7 km/h 98% 0 mm 0 W/m2
03:20 -0.3 °C -0.6 °C 1012.4 hPa North 3.2 km/h 11.3 km/h 98% 0 mm 0 W/m2
03:30 -0.4 °C -0.9 °C 1012.4 hPa North 1.6 km/h 9.7 km/h 96% 0 mm 0 W/m2
03:40 -0.4 °C -1.1 °C 1012.1 hPa North 4.8 km/h 12.9 km/h 95% 0 mm 0 W/m2
03:50 -0.4 °C -1.2 °C 1012.1 hPa NNE 8 km/h 12.9 km/h 94% 0 mm 0 W/m2
04:00 -0.5 °C -1.3 °C 1012.1 hPa North 8 km/h 14.5 km/h 94% 0 mm 0 W/m2
04:10 -0.5 °C -1.5 °C 1012.4 hPa North 3.2 km/h 9.7 km/h 93% 0 mm 0 W/m2
04:20 -0.5 °C -1.5 °C 1012.4 hPa North 1.6 km/h 8 km/h 93% 0 mm 0 W/m2
04:30 -0.6 °C -1.6 °C 1012.4 hPa North 1.6 km/h 6.4 km/h 93% 0 mm 0 W/m2
04:40 -0.7 °C -1.5 °C 1012.4 hPa Calm   3.2 km/h 94% 0 mm 0 W/m2
04:50 -0.7 °C -1.6 °C 1012.8 hPa North 1.6 km/h 8 km/h 94% 0 mm 0 W/m2
05:00 -0.8 °C -1.7 °C 1012.4 hPa NNW 1.6 km/h 8 km/h 94% 0 mm 0 W/m2
05:10 -0.8 °C -1.5 °C 1012.8 hPa WNW 1.6 km/h 8 km/h 95% 0 mm 0 W/m2
05:20 -0.9 °C -1.8 °C 1012.4 hPa WNW 1.6 km/h 6.4 km/h 94% 0 mm 0 W/m2
05:30 -1.2 °C -2 °C 1012.8 hPa NW 1.6 km/h 6.4 km/h 94% 0 mm 0 W/m2
05:40 -1.4 °C -2.2 °C 1012.8 hPa NNW 1.6 km/h 3.2 km/h 94% 0 mm 0 W/m2
05:50 -1.6 °C -2.3 °C 1012.8 hPa WNW 3.2 km/h 8 km/h 95% 0 mm 0 W/m2
06:00 -1.7 °C -2.4 °C 1012.8 hPa NW 3.2 km/h 8 km/h 95% 0 mm 0 W/m2
06:10 -1.9 °C -2.6 °C 1013.1 hPa WNW 3.2 km/h 8 km/h 95% 0 mm 0 W/m2
06:20 -1.9 °C -2.6 °C 1013.1 hPa West 1.6 km/h 9.7 km/h 95% 0 mm 0 W/m2
06:30 -2 °C -2.7 °C 1013.1 hPa SSW 1.6 km/h 4.8 km/h 95% 0 mm 0 W/m2
06:40 -2 °C -2.7 °C 1013.1 hPa ESE 4.8 km/h 9.7 km/h 95% 0.25 mm 0 W/m2
06:50 -1.9 °C -2.7 °C 1012.8 hPa Calm   9.7 km/h 94% 0 mm 0 W/m2
Knjazevac, Serbia
Compliments of Weather Underground - 2 mb